Norwegian Crown — C6II4 — position and weather

sailwx.info

Track history (hours):
 
Tides and Currents Weather Stations Pressure Air Temp Water Temp Dewpoint Dewpoint Depression Visibility Wind Speed Wind Dir Waves Ship Positions

Norwegian Crown

Operator: Norwegian Cruise Line

Last reported at 2016-May-03 15:33 UTC. Time now 2016-May-03 16:21 UTC.
Position N 40°46' W 073°60'.

Type: Ship. MMSI: 308785000.

Date/timePositionNaut miles runAvg speedWind from/ knotsBaromVisibWave heightAir tempDewpointWater temp
2016-May-03 15:33N 40°46' W 073°60'0 0.0
2016-May-03 14:33N 40°46' W 073°60'0 0.0
2016-May-03 13:05N 40°46' W 073°60'2 3.0
2016-May-03 12:34N 40°45' W 074°01'1313.0
2016-May-03 11:33N 40°32' W 074°01'1313.3
2016-May-03 10:34N 40°23' W 073°47'23 9.6
2016-May-03 08:13N 40°01' W 073°43'711.1
2016-May-03 07:33N 39°54' W 073°41'1111.0
2016-May-03 06:33N 39°43' W 073°41'19 8.7
2016-May-03 04:21N 39°24' W 073°44'179 9.1
2016-May-02 08:33N 36°56' W 075°53'1110.8
2016-May-02 07:34N 37°03' W 076°04'5015.0
2016-May-02 04:12N 37°53' W 076°10'1116.6
2016-May-02 03:33N 38°03' W 076°13'3516.2
2016-May-02 01:24N 38°37' W 076°26'1416.8
2016-May-02 00:34N 38°51' W 076°24'1615.9
2016-May-01 23:33N 39°06' W 076°24'1110.9
2016-May-01 22:33N 39°15' W 076°33'2 2.2
2016-May-01 21:33N 39°16' W 076°36'0 0.0
2016-May-01 20:27N 39°16' W 076°36'0 0.0
2016-May-01 18:28N 39°16' W 076°36'0 0.0
2016-May-01 17:28N 39°16' W 076°36'0 0.0
2016-May-01 16:33N 39°16' W 076°36'0 0.0
2016-May-01 15:22N 39°16' W 076°36'0 0.0
2016-May-01 14:10N 39°16' W 076°36'0 0.0
2016-May-01 12:10N 39°16' W 076°36'0 0.0
2016-May-01 07:33N 39°16' W 076°36'0 0.0
2016-May-01 06:33N 39°16' W 076°36'0 0.0
2016-May-01 05:33N 39°16' W 076°36'0 0.2
2016-May-01 04:33N 39°16' W 076°36'0 0.0
2016-May-01 03:33N 39°16' W 076°36'0 0.0
2016-May-01 02:33N 39°16' W 076°36'0 0.0
2016-May-01 01:33N 39°16' W 076°36'0 0.0
2016-May-01 00:33N 39°16' W 076°36'0 0.0
2016-Apr-30 23:33N 39°16' W 076°36'0 0.0
2016-Apr-30 22:33N 39°16' W 076°36'0 0.0
2016-Apr-30 21:33N 39°16' W 076°36'0 0.0
2016-Apr-30 20:33N 39°16' W 076°36'0 0.0
2016-Apr-30 19:33N 39°16' W 076°36'0 0.0
2016-Apr-30 18:33N 39°16' W 076°36'0 0.0
2016-Apr-30 17:33N 39°16' W 076°36'0 0.0
2016-Apr-30 16:33N 39°16' W 076°36'0 0.0
2016-Apr-30 15:33N 39°16' W 076°36'0 0.0
2016-Apr-30 14:33N 39°16' W 076°36'0 0.0
2016-Apr-30 13:33N 39°16' W 076°36'0 0.0
2016-Apr-30 12:21N 39°16' W 076°36'0 0.0
2016-Apr-30 11:33N 39°16' W 076°36'4 4.2
2016-Apr-30 10:33N 39°13' W 076°32'1312.6
2016-Apr-30 09:33N 39°03' W 076°23'5015.3
2016-Apr-30 06:19N 38°13' W 076°15'1215.9
2016-Apr-30 05:33N 38°01' W 076°13'5914.8
2016-Apr-30 01:33N 37°02' W 076°04'6 5.5
2016-Apr-30 00:33N 36°59' W 076°10'1010.0
2016-Apr-29 23:33N 36°54' W 076°20'4 3.5
2016-Apr-29 22:31N 36°51' W 076°18'0 0.0
2016-Apr-29 21:31N 36°51' W 076°18'0 0.0
2016-Apr-29 20:31N 36°51' W 076°18'0 0.0
2016-Apr-29 19:31N 36°51' W 076°18'0 0.0
2016-Apr-29 18:31N 36°51' W 076°18'0 0.0
2016-Apr-29 17:31N 36°51' W 076°18'0 0.0
2016-Apr-29 16:31N 36°51' W 076°18'0 0.0
2016-Apr-29 15:31N 36°51' W 076°18'0 0.0
2016-Apr-29 14:31N 36°51' W 076°18'0 0.0
2016-Apr-29 13:31N 36°51' W 076°18'0 0.0
2016-Apr-29 12:31N 36°51' W 076°18'0 0.0
2016-Apr-29 11:31N 36°51' W 076°18'0 0.0
2016-Apr-29 10:31N 36°51' W 076°18'0 0.0
2016-Apr-29 09:31N 36°51' W 076°18'0 0.0
2016-Apr-29 08:31N 36°51' W 076°18'0 0.0
2016-Apr-29 07:31N 36°51' W 076°18'0 0.0
2016-Apr-29 02:13N 36°51' W 076°18'0 0.0
2016-Apr-29 01:25N 36°51' W 076°18'0 0.0
2016-Apr-29 00:31N 36°51' W 076°18'0 0.0
2016-Apr-28 23:31N 36°51' W 076°18'0 0.0
2016-Apr-28 22:31N 36°51' W 076°18'0 0.0
2016-Apr-28 21:31N 36°51' W 076°18'0 0.0
2016-Apr-28 20:31N 36°51' W 076°18'0 0.0
2016-Apr-28 19:31N 36°51' W 076°18'0 0.0
2016-Apr-28 18:31N 36°51' W 076°18'0 0.0
2016-Apr-28 17:31N 36°51' W 076°18'0 0.0
2016-Apr-28 16:31N 36°51' W 076°18'0 0.0
2016-Apr-28 15:31N 36°51' W 076°18'0 0.0
2016-Apr-28 14:31N 36°51' W 076°18'0 0.0
2016-Apr-28 13:31N 36°51' W 076°18'0 0.0
2016-Apr-28 12:31N 36°51' W 076°18'0 0.0
2016-Apr-28 11:33N 36°51' W 076°18'5 4.8
2016-Apr-28 10:33N 36°55' W 076°20'1110.5
2016-Apr-28 09:33N 36°59' W 076°08'1313.2
2016-Apr-28 08:33N 36°54' W 075°53'  
Track history (hours):
 
Tides and Currents Weather Stations Pressure Air Temp Water Temp Dewpoint Dewpoint Depression Visibility Wind Speed Wind Dir Waves Ship Positions

Norwegian Crown

Operator: Norwegian Cruise Line

Last reported at 2016-May-03 15:33 UTC. Time now 2016-May-03 16:21 UTC.
Position N 40°46' W 073°60'.

Type: Ship. MMSI: 308785000.

Date/timePositionNaut miles runAvg speedWind from/ knotsBaromVisibWave heightAir tempDewpointWater temp
2016-May-03 15:33N 40°46' W 073°60'0 0.0
2016-May-03 14:33N 40°46' W 073°60'0 0.0
2016-May-03 13:05N 40°46' W 073°60'2 3.0
2016-May-03 12:34N 40°45' W 074°01'1313.0
2016-May-03 11:33N 40°32' W 074°01'1313.3
2016-May-03 10:34N 40°23' W 073°47'23 9.6
2016-May-03 08:13N 40°01' W 073°43'711.1
2016-May-03 07:33N 39°54' W 073°41'1111.0
2016-May-03 06:33N 39°43' W 073°41'19 8.7
2016-May-03 04:21N 39°24' W 073°44'179 9.1
2016-May-02 08:33N 36°56' W 075°53'1110.8
2016-May-02 07:34N 37°03' W 076°04'5015.0
2016-May-02 04:12N 37°53' W 076°10'1116.6
2016-May-02 03:33N 38°03' W 076°13'3516.2
2016-May-02 01:24N 38°37' W 076°26'1416.8
2016-May-02 00:34N 38°51' W 076°24'1615.9
2016-May-01 23:33N 39°06' W 076°24'1110.9
2016-May-01 22:33N 39°15' W 076°33'2 2.2
2016-May-01 21:33N 39°16' W 076°36'0 0.0
2016-May-01 20:27N 39°16' W 076°36'0 0.0
2016-May-01 18:28N 39°16' W 076°36'0 0.0
2016-May-01 17:28N 39°16' W 076°36'0 0.0
2016-May-01 16:33N 39°16' W 076°36'0 0.0
2016-May-01 15:22N 39°16' W 076°36'0 0.0
2016-May-01 14:10N 39°16' W 076°36'0 0.0
2016-May-01 12:10N 39°16' W 076°36'0 0.0
2016-May-01 07:33N 39°16' W 076°36'0 0.0
2016-May-01 06:33N 39°16' W 076°36'0 0.0
2016-May-01 05:33N 39°16' W 076°36'0 0.2
2016-May-01 04:33N 39°16' W 076°36'0 0.0
2016-May-01 03:33N 39°16' W 076°36'0 0.0
2016-May-01 02:33N 39°16' W 076°36'0 0.0
2016-May-01 01:33N 39°16' W 076°36'0 0.0
2016-May-01 00:33N 39°16' W 076°36'0 0.0
2016-Apr-30 23:33N 39°16' W 076°36'0 0.0
2016-Apr-30 22:33N 39°16' W 076°36'0 0.0
2016-Apr-30 21:33N 39°16' W 076°36'0 0.0
2016-Apr-30 20:33N 39°16' W 076°36'0 0.0
2016-Apr-30 19:33N 39°16' W 076°36'0 0.0
2016-Apr-30 18:33N 39°16' W 076°36'0 0.0
2016-Apr-30 17:33N 39°16' W 076°36'0 0.0
2016-Apr-30 16:33N 39°16' W 076°36'0 0.0
2016-Apr-30 15:33N 39°16' W 076°36'0 0.0
2016-Apr-30 14:33N 39°16' W 076°36'0 0.0
2016-Apr-30 13:33N 39°16' W 076°36'0 0.0
2016-Apr-30 12:21N 39°16' W 076°36'0 0.0
2016-Apr-30 11:33N 39°16' W 076°36'4 4.2
2016-Apr-30 10:33N 39°13' W 076°32'1312.6
2016-Apr-30 09:33N 39°03' W 076°23'5015.3
2016-Apr-30 06:19N 38°13' W 076°15'1215.9
2016-Apr-30 05:33N 38°01' W 076°13'5914.8
2016-Apr-30 01:33N 37°02' W 076°04'6 5.5
2016-Apr-30 00:33N 36°59' W 076°10'1010.0
2016-Apr-29 23:33N 36°54' W 076°20'4 3.5
2016-Apr-29 22:31N 36°51' W 076°18'0 0.0
2016-Apr-29 21:31N 36°51' W 076°18'0 0.0
2016-Apr-29 20:31N 36°51' W 076°18'0 0.0
2016-Apr-29 19:31N 36°51' W 076°18'0 0.0
2016-Apr-29 18:31N 36°51' W 076°18'0 0.0
2016-Apr-29 17:31N 36°51' W 076°18'0 0.0
2016-Apr-29 16:31N 36°51' W 076°18'0 0.0
2016-Apr-29 15:31N 36°51' W 076°18'0 0.0
2016-Apr-29 14:31N 36°51' W 076°18'0 0.0
2016-Apr-29 13:31N 36°51' W 076°18'0 0.0
2016-Apr-29 12:31N 36°51' W 076°18'0 0.0
2016-Apr-29 11:31N 36°51' W 076°18'0 0.0
2016-Apr-29 10:31N 36°51' W 076°18'0 0.0
2016-Apr-29 09:31N 36°51' W 076°18'0 0.0
2016-Apr-29 08:31N 36°51' W 076°18'0 0.0
2016-Apr-29 07:31N 36°51' W 076°18'0 0.0
2016-Apr-29 02:13N 36°51' W 076°18'0 0.0
2016-Apr-29 01:25N 36°51' W 076°18'0 0.0
2016-Apr-29 00:31N 36°51' W 076°18'0 0.0
2016-Apr-28 23:31N 36°51' W 076°18'0 0.0
2016-Apr-28 22:31N 36°51' W 076°18'0 0.0
2016-Apr-28 21:31N 36°51' W 076°18'0 0.0
2016-Apr-28 20:31N 36°51' W 076°18'0 0.0
2016-Apr-28 19:31N 36°51' W 076°18'0 0.0
2016-Apr-28 18:31N 36°51' W 076°18'0 0.0
2016-Apr-28 17:31N 36°51' W 076°18'0 0.0
2016-Apr-28 16:31N 36°51' W 076°18'0 0.0
2016-Apr-28 15:31N 36°51' W 076°18'0 0.0
2016-Apr-28 14:31N 36°51' W 076°18'0 0.0
2016-Apr-28 13:31N 36°51' W 076°18'0 0.0
2016-Apr-28 12:31N 36°51' W 076°18'0 0.0
2016-Apr-28 11:33N 36°51' W 076°18'5 4.8
2016-Apr-28 10:33N 36°55' W 076°20'1110.5
2016-Apr-28 09:33N 36°59' W 076°08'1313.2
2016-Apr-28 08:33N 36°54' W 075°53'  

Dump ship's entire track history